createdAt,value
2019-03-22T00:02:20.195Z,20.13
2019-03-22T00:04:50.845Z,19.17
2019-03-22T00:07:21.238Z,16.17
2019-03-22T00:09:51.696Z,17.50
2019-03-22T00:12:22.129Z,15.97
2019-03-22T00:14:52.585Z,16.83
2019-03-22T00:17:22.160Z,23.17
2019-03-22T00:19:51.582Z,15.67
2019-03-22T00:22:21.949Z,20.33
2019-03-22T00:24:51.425Z,19.20
2019-03-22T00:27:21.785Z,18.10
2019-03-22T00:29:52.239Z,15.47
2019-03-22T00:32:22.716Z,17.43
2019-03-22T00:34:53.143Z,15.30
2019-03-22T00:37:22.738Z,17.50
2019-03-22T00:39:52.998Z,18.77
2019-03-22T00:42:23.366Z,20.17
2019-03-22T00:44:53.721Z,16.70
2019-03-22T00:47:24.476Z,17.37
2019-03-22T00:49:54.029Z,16.57
2019-03-22T00:52:24.309Z,16.80
2019-03-22T00:54:53.861Z,20.77
2019-03-22T00:57:28.679Z,15.37
2019-03-22T00:59:55.360Z,17.03
2019-03-22T01:02:25.709Z,16.50
2019-03-22T01:04:56.081Z,16.57
2019-03-22T01:07:25.682Z,20.50
2019-03-22T01:09:56.011Z,19.87
2019-03-22T01:12:26.470Z,14.13
2019-03-22T01:14:56.900Z,17.87
2019-03-22T01:17:27.341Z,14.70
2019-03-22T01:19:57.689Z,15.57
2019-03-22T01:22:28.074Z,14.60
2019-03-22T01:24:58.518Z,16.37
2019-03-22T01:27:39.582Z,20.13
2019-03-22T01:29:59.132Z,17.50
2019-03-22T01:32:29.438Z,20.60
2019-03-22T01:34:59.882Z,16.20
2019-03-22T01:37:30.329Z,22.70
2019-03-22T01:40:00.755Z,14.47
2019-03-22T01:42:30.362Z,19.07
2019-03-22T01:45:00.921Z,19.57
2019-03-22T01:47:30.433Z,15.87
2019-03-22T01:50:00.699Z,21.27
2019-03-22T01:52:30.281Z,17.37
2019-03-22T01:55:00.547Z,12.20
2019-03-22T01:57:30.122Z,13.67
2019-03-22T02:00:00.412Z,13.77
2019-03-22T02:02:29.983Z,14.33
2019-03-22T02:05:00.420Z,16.63
2019-03-22T02:07:30.050Z,11.90
2019-03-22T02:09:59.572Z,10.13
2019-03-22T02:12:29.983Z,15.20
2019-03-22T02:15:00.397Z,13.03
2019-03-22T02:17:29.973Z,14.90
2019-03-22T02:20:00.347Z,13.13
2019-03-22T02:22:29.895Z,12.03
2019-03-22T02:25:00.330Z,14.97
2019-03-22T02:27:30.018Z,10.67
2019-03-22T02:30:00.554Z,11.53
2019-03-22T02:32:30.274Z,11.67
2019-03-22T02:35:00.743Z,12.53
2019-03-22T02:37:31.206Z,12.43
2019-03-22T02:40:01.630Z,15.20
2019-03-22T02:42:31.214Z,10.33
2019-03-22T02:45:01.605Z,13.10
2019-03-22T02:47:32.627Z,11.60
2019-03-22T02:50:17.221Z,11.93
2019-03-22T02:52:35.155Z,12.70
2019-03-22T02:55:06.972Z,14.67
2019-03-22T02:57:36.823Z,9.27
2019-03-22T03:00:06.858Z,12.30
2019-03-22T03:02:37.242Z,12.33
2019-03-22T03:05:07.344Z,16.27
2019-03-22T03:07:37.715Z,12.53
2019-03-22T03:10:09.582Z,10.47
2019-03-22T03:12:39.166Z,12.20
2019-03-22T03:15:10.745Z,25.30
2019-03-22T03:17:41.189Z,10.03
2019-03-22T03:20:11.366Z,12.27
2019-03-22T03:22:41.721Z,12.10
2019-03-22T03:25:12.304Z,10.67
2019-03-22T03:27:42.769Z,19.30
2019-03-22T03:30:14.507Z,13.33
2019-03-22T03:32:45.026Z,13.47
2019-03-22T03:35:17.003Z,9.37
2019-03-22T03:37:47.490Z,14.87
2019-03-22T03:40:18.331Z,13.67
2019-03-22T03:42:48.701Z,10.57
2019-03-22T03:45:36.888Z,10.23
2019-03-22T03:48:08.438Z,12.13
2019-03-22T03:50:39.376Z,13.33
2019-03-22T03:53:09.854Z,12.87
2019-03-22T03:55:39.622Z,12.37
2019-03-22T03:58:10.026Z,11.27
2019-03-22T04:00:39.594Z,13.53
2019-03-22T04:03:09.946Z,13.97
2019-03-22T04:05:40.476Z,10.77
2019-03-22T04:08:10.063Z,15.80
2019-03-22T04:10:40.403Z,10.13
2019-03-22T04:13:10.874Z,12.17
2019-03-22T04:15:40.442Z,11.70
2019-03-22T04:18:10.831Z,10.43
2019-03-22T04:20:41.266Z,11.53
2019-03-22T04:23:11.698Z,13.60
2019-03-22T04:25:41.302Z,10.13
2019-03-22T04:28:11.681Z,15.13
2019-03-22T04:30:42.135Z,14.33
2019-03-22T04:33:12.571Z,18.00
2019-03-22T04:35:42.996Z,22.37
2019-03-22T04:38:12.768Z,13.97
2019-03-22T04:40:43.085Z,13.20
2019-03-22T04:43:13.523Z,12.57
2019-03-22T04:45:44.112Z,15.63
2019-03-22T04:48:16.606Z,12.47
2019-03-22T04:50:49.361Z,14.90
2019-03-22T04:53:22.755Z,11.93
2019-03-22T04:55:55.019Z,11.03
2019-03-22T04:58:24.815Z,11.00
2019-03-22T05:00:58.129Z,18.10
2019-03-22T05:03:29.562Z,14.63
2019-03-22T05:06:02.379Z,13.43
2019-03-22T05:08:36.603Z,15.03
2019-03-22T05:11:08.724Z,11.83
2019-03-22T05:13:39.741Z,14.63
2019-03-22T05:16:13.265Z,20.27
2019-03-22T05:18:44.573Z,15.30
2019-03-22T05:21:16.946Z,13.93
2019-03-22T05:23:48.245Z,11.90
2019-03-22T05:26:19.188Z,11.90
2019-03-22T05:28:50.842Z,13.70
2019-03-22T05:31:36.749Z,15.13
2019-03-22T05:34:06.407Z,13.43
2019-03-22T05:36:35.877Z,16.00
2019-03-22T05:39:09.458Z,17.00
2019-03-22T05:41:40.285Z,15.63
2019-03-22T05:44:10.797Z,14.13
2019-03-22T05:46:40.381Z,19.37
2019-03-22T05:49:10.757Z,13.50
2019-03-22T05:51:41.196Z,15.77
2019-03-22T05:54:11.626Z,16.27
2019-03-22T05:56:41.133Z,18.83
2019-03-22T05:59:10.634Z,13.90
2019-03-22T06:01:40.910Z,17.13
2019-03-22T06:04:10.490Z,14.33
2019-03-22T06:06:40.781Z,13.93
2019-03-22T06:09:11.423Z,16.17
2019-03-22T06:11:41.950Z,15.33
2019-03-22T06:14:12.416Z,14.07
2019-03-22T06:16:41.961Z,13.93
2019-03-22T06:19:11.609Z,14.50
2019-03-22T06:21:41.133Z,12.43
2019-03-22T06:24:11.626Z,13.83
2019-03-22T06:26:41.139Z,11.37
2019-03-22T06:29:10.637Z,14.50
2019-03-22T06:31:41.093Z,16.67
2019-03-22T06:34:10.670Z,13.97
2019-03-22T06:36:40.145Z,13.83
2019-03-22T06:39:10.263Z,16.10
2019-03-22T06:41:41.395Z,12.53
2019-03-22T06:44:10.999Z,12.77
2019-03-22T06:46:40.481Z,14.53
2019-03-22T06:49:10.023Z,17.40
2019-03-22T06:51:40.395Z,14.23
2019-03-22T06:54:10.354Z,12.03
2019-03-22T06:56:40.733Z,22.50
2019-03-22T06:59:10.326Z,14.27
2019-03-22T07:01:39.742Z,11.17
2019-03-22T07:04:10.127Z,10.50
2019-03-22T07:06:39.717Z,12.17
2019-03-22T07:09:09.545Z,9.83
2019-03-22T07:11:41.854Z,12.20
2019-03-22T07:14:11.698Z,14.47
2019-03-22T07:16:42.066Z,12.10
2019-03-22T07:19:11.625Z,13.77
2019-03-22T07:21:41.997Z,11.90
2019-03-22T07:24:11.661Z,11.40
2019-03-22T07:26:41.159Z,14.10
2019-03-22T07:29:10.657Z,13.37
2019-03-22T07:31:40.187Z,13.13
2019-03-22T07:34:10.518Z,10.33
2019-03-22T07:36:40.099Z,15.00
2019-03-22T07:39:09.585Z,9.37
2019-03-22T07:41:39.069Z,11.33
2019-03-22T07:44:08.534Z,9.60
2019-03-22T07:46:38.842Z,12.20
2019-03-22T07:49:09.262Z,10.40
2019-03-22T07:51:39.785Z,10.30
2019-03-22T07:54:09.381Z,12.73
2019-03-22T07:56:39.735Z,10.30
2019-03-22T07:59:10.168Z,13.37
2019-03-22T08:01:39.741Z,7.80
2019-03-22T08:04:09.199Z,9.20
2019-03-22T08:06:38.883Z,10.97
2019-03-22T08:09:10.064Z,9.93
2019-03-22T08:11:40.933Z,9.67
2019-03-22T08:14:11.377Z,11.50
2019-03-22T08:16:40.954Z,8.57
2019-03-22T08:19:11.262Z,8.03
2019-03-22T08:21:40.810Z,8.67
2019-03-22T08:24:10.335Z,10.23
2019-03-22T08:26:40.655Z,8.67
2019-03-22T08:29:11.090Z,11.17
2019-03-22T08:31:40.694Z,10.53
2019-03-22T08:34:10.162Z,9.83
2019-03-22T08:36:39.618Z,8.20
2019-03-22T08:39:10.335Z,9.33
2019-03-22T08:41:40.831Z,9.50
2019-03-22T08:44:11.247Z,9.07
2019-03-22T08:46:41.717Z,9.47
2019-03-22T08:49:12.204Z,12.27
2019-03-22T08:51:41.765Z,11.53
2019-03-22T08:54:12.170Z,11.10
2019-03-22T08:56:42.693Z,8.63
2019-03-22T08:59:13.479Z,10.93
2019-03-22T09:01:43.114Z,8.43
2019-03-22T09:04:12.582Z,9.33
2019-03-22T09:06:43.234Z,9.33
2019-03-22T09:09:12.790Z,15.03
2019-03-22T09:11:42.377Z,10.57
2019-03-22T09:14:11.868Z,8.17
2019-03-22T09:16:42.253Z,9.90
2019-03-22T09:19:11.950Z,7.10
2019-03-22T09:21:42.314Z,9.77
2019-03-22T09:24:12.909Z,8.23
2019-03-22T09:26:47.623Z,11.03
2019-03-22T09:29:14.540Z,10.87
2019-03-22T09:31:45.041Z,7.40
2019-03-22T09:34:15.471Z,8.53
2019-03-22T09:36:45.995Z,6.97
2019-03-22T09:39:15.568Z,6.63
2019-03-22T09:41:45.076Z,11.90
2019-03-22T09:44:14.597Z,7.50
2019-03-22T09:46:44.938Z,12.70
2019-03-22T09:49:14.619Z,12.23
2019-03-22T09:51:44.237Z,8.37
2019-03-22T09:54:13.726Z,6.97
2019-03-22T09:56:47.387Z,8.53
2019-03-22T09:59:14.295Z,12.10
2019-03-22T10:01:43.811Z,7.43
2019-03-22T10:04:14.145Z,10.20
2019-03-22T10:06:43.722Z,9.43
2019-03-22T10:09:13.198Z,8.47
2019-03-22T10:11:42.738Z,8.83
2019-03-22T10:14:13.038Z,7.00
2019-03-22T10:16:42.770Z,12.30
2019-03-22T10:19:12.261Z,9.03
2019-03-22T10:21:42.566Z,6.63
2019-03-22T10:24:13.061Z,8.00
2019-03-22T10:26:42.597Z,11.77
2019-03-22T10:29:12.089Z,6.60
2019-03-22T10:31:42.478Z,6.30
2019-03-22T10:34:13.048Z,6.57
2019-03-22T10:36:42.630Z,7.73
2019-03-22T10:39:13.007Z,6.10
2019-03-22T10:41:42.636Z,7.63
2019-03-22T10:44:12.991Z,7.17
2019-03-22T10:46:42.579Z,11.77
2019-03-22T10:49:12.145Z,11.07
2019-03-22T10:51:41.636Z,8.53
2019-03-22T10:54:11.994Z,9.27
2019-03-22T10:56:41.590Z,7.63
2019-03-22T10:59:11.073Z,8.67
2019-03-22T11:01:48.683Z,9.37
2019-03-22T11:04:12.642Z,14.60
2019-03-22T11:06:43.014Z,10.50
2019-03-22T11:09:13.457Z,9.17
2019-03-22T11:11:43.041Z,13.00
2019-03-22T11:14:13.327Z,9.63
2019-03-22T11:16:43.266Z,10.63
2019-03-22T11:19:13.666Z,12.80
2019-03-22T11:21:43.383Z,13.67
2019-03-22T11:24:13.736Z,10.50
2019-03-22T11:26:43.329Z,13.60
2019-03-22T11:29:14.386Z,10.47
2019-03-22T11:31:44.473Z,11.30
2019-03-22T11:34:14.841Z,9.90
2019-03-22T11:36:44.609Z,14.67
2019-03-22T11:39:15.838Z,9.53
2019-03-22T11:41:46.690Z,11.03
2019-03-22T11:44:17.245Z,8.67
2019-03-22T11:46:47.992Z,12.47
2019-03-22T11:49:18.666Z,13.37
2019-03-22T11:51:49.333Z,10.20
2019-03-22T11:54:19.831Z,11.17
2019-03-22T11:56:50.318Z,9.90
2019-03-22T11:59:19.886Z,11.23
2019-03-22T12:01:50.545Z,9.23
2019-03-22T12:04:20.191Z,9.97
2019-03-22T12:06:50.862Z,13.53
2019-03-22T12:09:22.963Z,10.30
2019-03-22T12:11:52.697Z,18.67
2019-03-22T12:14:22.202Z,10.40
2019-03-22T12:16:51.702Z,13.07
2019-03-22T12:19:21.143Z,12.10
2019-03-22T12:21:50.560Z,13.10
2019-03-22T12:24:20.054Z,15.23
2019-03-22T12:26:50.406Z,14.50
2019-03-22T12:29:20.870Z,11.30
2019-03-22T12:31:51.700Z,11.43
2019-03-22T12:34:22.179Z,13.37
2019-03-22T12:36:51.737Z,10.83
2019-03-22T12:39:21.177Z,10.73
2019-03-22T12:41:50.645Z,14.07
2019-03-22T12:44:21.022Z,15.27
2019-03-22T12:46:51.853Z,16.40
2019-03-22T12:49:22.355Z,11.60
2019-03-22T12:51:51.923Z,17.90
2019-03-22T12:54:21.445Z,14.23
2019-03-22T12:56:51.758Z,15.33
2019-03-22T12:59:21.346Z,16.77
2019-03-22T13:01:51.117Z,13.33
2019-03-22T13:04:20.641Z,12.43
2019-03-22T13:06:53.137Z,10.47
2019-03-22T13:09:22.255Z,13.80
2019-03-22T13:11:51.656Z,10.93
2019-03-22T13:14:21.959Z,10.83
2019-03-22T13:16:51.525Z,12.77
2019-03-22T13:19:21.037Z,16.50
2019-03-22T13:21:50.511Z,13.53
2019-03-22T13:24:19.940Z,15.00
2019-03-22T13:26:50.331Z,11.47
2019-03-22T13:29:20.781Z,11.30
2019-03-22T13:31:51.201Z,13.10
2019-03-22T13:34:21.603Z,15.60
2019-03-22T13:36:51.986Z,11.37
2019-03-22T13:39:21.583Z,14.20
2019-03-22T13:41:51.063Z,13.73
2019-03-22T13:44:20.599Z,12.67
2019-03-22T13:46:50.951Z,12.70
2019-03-22T13:49:20.625Z,12.37
2019-03-22T13:51:50.985Z,20.10
2019-03-22T13:54:20.661Z,13.20
2019-03-22T13:56:51.021Z,13.17
2019-03-22T13:59:21.824Z,12.87
2019-03-22T14:01:51.502Z,14.47
2019-03-22T14:04:21.874Z,14.10
2019-03-22T14:06:52.341Z,13.67
2019-03-22T14:09:22.865Z,13.23
2019-03-22T14:11:53.258Z,10.93
2019-03-22T14:14:23.713Z,15.93
2019-03-22T14:16:54.213Z,11.80
2019-03-22T14:19:24.633Z,11.47
2019-03-22T14:21:54.173Z,10.50
2019-03-22T14:24:23.609Z,13.43
2019-03-22T14:26:53.144Z,10.97
2019-03-22T14:29:23.443Z,13.27
2019-03-22T14:31:53.946Z,12.37
2019-03-22T14:34:24.633Z,15.10
2019-03-22T14:36:55.337Z,14.13
2019-03-22T14:39:25.790Z,13.13
2019-03-22T14:41:56.261Z,14.13
2019-03-22T14:44:28.313Z,13.43
2019-03-22T14:46:58.014Z,13.57
2019-03-22T14:49:27.486Z,15.17
2019-03-22T14:51:57.867Z,10.77
2019-03-22T14:54:28.546Z,11.67
2019-03-22T14:56:59.021Z,11.23
2019-03-22T14:59:28.586Z,14.67
2019-03-22T15:01:58.961Z,10.20
2019-03-22T15:04:29.333Z,12.97
2019-03-22T15:06:59.822Z,12.37
2019-03-22T15:09:29.384Z,11.53
2019-03-22T15:11:59.810Z,10.87
2019-03-22T15:14:47.994Z,12.77
2019-03-22T15:17:35.310Z,11.33
2019-03-22T15:20:25.344Z,12.73
2019-03-22T15:23:19.870Z,12.43
2019-03-22T15:26:06.032Z,14.17
2019-03-22T15:28:54.209Z,11.93
2019-03-22T15:31:55.448Z,10.43
2019-03-22T15:34:56.805Z,13.13
2019-03-22T15:37:55.305Z,15.70
2019-03-22T15:40:25.750Z,12.53
2019-03-22T15:42:55.357Z,9.87
2019-03-22T15:45:25.698Z,12.57
2019-03-22T15:47:56.170Z,11.77
2019-03-22T15:50:25.673Z,9.57
2019-03-22T15:52:55.973Z,15.83
2019-03-22T15:55:26.434Z,11.10
2019-03-22T15:57:56.901Z,12.93
2019-03-22T16:00:26.498Z,12.43
2019-03-22T16:02:56.863Z,12.53
2019-03-22T16:05:27.369Z,13.63
2019-03-22T16:07:57.818Z,14.10
2019-03-22T16:10:27.396Z,10.40
2019-03-22T16:12:56.929Z,10.50
2019-03-22T16:15:27.389Z,12.83
2019-03-22T16:17:57.919Z,14.70
2019-03-22T16:20:28.321Z,12.57
2019-03-22T16:22:58.795Z,14.53
2019-03-22T16:25:29.254Z,11.17
2019-03-22T16:27:59.748Z,13.40
2019-03-22T16:30:30.299Z,11.47
2019-03-22T16:33:00.767Z,12.17
2019-03-22T16:35:30.351Z,14.00
2019-03-22T16:38:00.662Z,12.97
2019-03-22T16:40:31.050Z,12.13
2019-03-22T16:43:01.503Z,12.97
2019-03-22T16:45:41.085Z,16.77
2019-03-22T16:48:11.569Z,13.63
2019-03-22T16:50:42.218Z,12.30
2019-03-22T16:53:11.813Z,13.67
2019-03-22T16:55:42.173Z,11.80
2019-03-22T16:58:12.658Z,12.40
2019-03-22T17:00:42.221Z,16.93
2019-03-22T17:03:12.615Z,17.90
2019-03-22T17:05:43.092Z,12.90
2019-03-22T17:08:13.490Z,14.87
2019-03-22T17:10:43.874Z,13.60
2019-03-22T17:13:13.481Z,15.30
2019-03-22T17:15:42.897Z,14.80
2019-03-22T17:18:13.518Z,15.53
2019-03-22T17:20:43.092Z,11.80
2019-03-22T17:23:13.806Z,16.37
2019-03-22T17:25:43.410Z,16.40
2019-03-22T17:28:12.911Z,14.07
2019-03-22T17:30:43.291Z,15.90
2019-03-22T17:33:13.775Z,13.27
2019-03-22T17:35:43.330Z,17.70
2019-03-22T17:38:12.855Z,17.90
2019-03-22T17:40:42.341Z,11.83
2019-03-22T17:43:12.732Z,16.03
2019-03-22T17:45:43.179Z,14.77
2019-03-22T17:48:12.769Z,18.83
2019-03-22T17:50:43.143Z,12.30
2019-03-22T17:53:13.516Z,19.93
2019-03-22T17:55:43.123Z,13.63
2019-03-22T17:58:13.678Z,13.70
2019-03-22T18:00:44.645Z,15.87
2019-03-22T18:03:14.135Z,16.47
2019-03-22T18:05:44.540Z,19.20
2019-03-22T18:08:14.133Z,16.27
2019-03-22T18:10:44.739Z,15.80
2019-03-22T18:13:15.210Z,15.23
2019-03-22T18:15:45.751Z,21.70
2019-03-22T18:18:15.264Z,18.70
2019-03-22T18:20:45.722Z,23.47
2019-03-22T18:23:16.162Z,21.03
2019-03-22T18:25:45.681Z,18.47
2019-03-22T18:28:16.059Z,24.93
2019-03-22T18:30:46.563Z,21.67
2019-03-22T18:33:16.170Z,21.03
2019-03-22T18:35:46.548Z,23.40
2019-03-22T18:38:16.112Z,23.13
2019-03-22T18:40:46.424Z,26.40
2019-03-22T18:43:15.997Z,22.93
2019-03-22T18:45:46.321Z,20.67
2019-03-22T18:48:16.776Z,18.23
2019-03-22T18:50:56.297Z,17.40
2019-03-22T18:53:18.682Z,19.63
2019-03-22T18:55:48.120Z,21.40
2019-03-22T18:58:18.486Z,17.33
2019-03-22T19:00:49.637Z,19.23
2019-03-22T19:03:19.113Z,21.27
2019-03-22T19:05:48.666Z,20.60
2019-03-22T19:08:18.153Z,23.00
2019-03-22T19:10:48.757Z,27.57
2019-03-22T19:13:19.203Z,18.77
2019-03-22T19:15:48.829Z,28.90
2019-03-22T19:18:19.246Z,21.77
2019-03-22T19:20:49.236Z,23.93
2019-03-22T19:23:19.558Z,23.33
2019-03-22T19:25:49.152Z,16.93
2019-03-22T19:28:19.674Z,20.60
2019-03-22T19:30:49.268Z,19.13
2019-03-22T19:33:19.654Z,21.83
2019-03-22T19:35:49.255Z,20.17
2019-03-22T19:38:19.617Z,25.37
2019-03-22T19:40:49.241Z,22.17
2019-03-22T19:43:18.705Z,20.90
2019-03-22T19:45:49.025Z,27.67
2019-03-22T19:48:18.533Z,26.33
2019-03-22T19:50:48.846Z,28.50
2019-03-22T19:53:19.338Z,26.47
2019-03-22T19:55:48.860Z,24.33
2019-03-22T19:58:19.146Z,27.67
2019-03-22T20:00:49.673Z,26.40
2019-03-22T20:03:20.164Z,25.47
2019-03-22T20:05:49.741Z,21.23
2019-03-22T20:08:20.091Z,18.73
2019-03-22T20:10:50.641Z,29.97
2019-03-22T20:13:22.131Z,19.47
2019-03-22T20:15:52.142Z,20.20
2019-03-22T20:18:21.637Z,25.73
2019-03-22T20:20:52.123Z,25.13
2019-03-22T20:23:21.727Z,22.93
2019-03-22T20:25:52.050Z,24.27
2019-03-22T20:28:21.682Z,24.53
2019-03-22T20:30:51.209Z,26.10
2019-03-22T20:33:21.590Z,25.50
2019-03-22T20:35:51.205Z,30.67
2019-03-22T20:38:20.613Z,25.63
2019-03-22T20:40:50.937Z,26.10
2019-03-22T20:43:21.268Z,23.00
2019-03-22T20:45:52.048Z,30.20
2019-03-22T20:48:21.558Z,26.00
2019-03-22T20:50:51.958Z,26.40
2019-03-22T20:53:22.422Z,25.90
2019-03-22T20:55:52.037Z,18.83
2019-03-22T20:58:21.509Z,24.27
2019-03-22T21:00:51.892Z,20.60
2019-03-22T21:03:22.342Z,21.27
2019-03-22T21:05:51.939Z,23.27
2019-03-22T21:08:22.319Z,26.07
2019-03-22T21:10:52.011Z,42.50
2019-03-22T21:13:21.487Z,23.33
2019-03-22T21:15:51.878Z,26.57
2019-03-22T21:18:21.507Z,28.80
2019-03-22T21:20:51.858Z,20.33
2019-03-22T21:23:22.337Z,24.50
2019-03-22T21:25:51.864Z,24.37
2019-03-22T21:28:21.532Z,22.03
2019-03-22T21:30:51.880Z,22.93
2019-03-22T21:33:21.533Z,22.63
2019-03-22T21:35:51.922Z,23.73
2019-03-22T21:38:22.425Z,24.40
2019-03-22T21:40:53.075Z,25.07
2019-03-22T21:43:23.554Z,26.27
2019-03-22T21:45:53.132Z,24.03
2019-03-22T21:48:23.512Z,19.90
2019-03-22T21:50:53.093Z,20.30
2019-03-22T21:53:23.413Z,22.07
2019-03-22T21:55:54.351Z,23.23
2019-03-22T21:58:24.929Z,22.50
2019-03-22T22:00:55.319Z,19.43
2019-03-22T22:03:24.925Z,18.00
2019-03-22T22:05:54.417Z,21.23
2019-03-22T22:08:24.739Z,22.27
2019-03-22T22:10:59.699Z,20.87
2019-03-22T22:13:25.454Z,19.77
2019-03-22T22:15:55.726Z,19.27
2019-03-22T22:18:26.210Z,17.37
2019-03-22T22:20:56.650Z,18.97
2019-03-22T22:23:26.314Z,28.77
2019-03-22T22:25:56.874Z,23.10
2019-03-22T22:28:27.285Z,19.30
2019-03-22T22:30:57.785Z,17.87
2019-03-22T22:33:28.586Z,18.40
2019-03-22T22:35:59.231Z,19.53
2019-03-22T22:38:29.793Z,18.57
2019-03-22T22:40:59.366Z,21.23
2019-03-22T22:43:28.868Z,20.60
2019-03-22T22:45:59.227Z,16.63
2019-03-22T22:48:28.834Z,20.67
2019-03-22T22:50:59.205Z,17.07
2019-03-22T22:53:29.608Z,16.77
2019-03-22T22:56:00.059Z,18.50
2019-03-22T22:58:30.760Z,18.90
2019-03-22T23:01:00.281Z,16.97
2019-03-22T23:03:29.790Z,17.73
2019-03-22T23:06:09.130Z,25.10
2019-03-22T23:08:31.245Z,18.40
2019-03-22T23:11:01.697Z,17.20
2019-03-22T23:13:32.215Z,17.97
2019-03-22T23:16:03.006Z,16.47
2019-03-22T23:18:33.509Z,18.33
2019-03-22T23:21:03.998Z,15.30
2019-03-22T23:23:34.480Z,14.17
2019-03-22T23:26:05.341Z,16.03
2019-03-22T23:28:34.930Z,14.83
2019-03-22T23:31:05.335Z,17.43
2019-03-22T23:33:34.934Z,18.47
2019-03-22T23:36:04.413Z,12.87
2019-03-22T23:38:34.781Z,13.67
2019-03-22T23:41:05.154Z,12.50
2019-03-22T23:43:35.717Z,14.00
2019-03-22T23:46:05.370Z,18.03
2019-03-22T23:48:34.874Z,13.47
2019-03-22T23:51:05.249Z,12.33
2019-03-22T23:53:35.717Z,13.83
2019-03-22T23:56:06.088Z,10.33
2019-03-22T23:58:36.534Z,15.40
